Time;durP1;ratioP1;P1;durP2;ratioP2;P2;SDS_P1;SDS_P2;PMS_P1;PMS_P2;Temp;Humidity;BMP_temperature;BMP_pressure;BME280_temperature;BME280_humidity;BME280_pressure;Samples;Min_cycle;Max_cycle;Signal;HPM_P1;HPM_P2
2022/01/07 00:02:23;;;;;;;;;;;;;;;21.26;33.26;100966.58;104752;1305;61638;-87
2022/01/07 00:05:33;;;;;;;;;;;;;;;21.24;33.44;100962.72;104721;1305;61012;-84
2022/01/07 00:07:58;;;;;;;;;;;;;;;21.25;33.46;100974.51;104675;1305;72750;-84
2022/01/07 00:10:33;;;;;;;;;;;;;;;21.25;33.40;100978.95;104638;1305;61285;-84
2022/01/07 00:13:12;;;;;;;;;;;;;;;;;;;;;
2022/01/07 00:15:42;;;;;;;;;;;;;;;21.25;33.10;100963.93;104450;1306;61357;-83
2022/01/07 00:18:37;;;;;;;;;;;;;;;21.25;33.23;100961.58;104254;1314;71447;-83
2022/01/07 00:21:05;;;;;;;;;;;;;;;21.25;33.29;100969.48;104279;1314;74814;-84
2022/01/07 00:23:51;;;;;;;;;;;;;;;;;;;;;
2022/01/07 00:26:34;;;;;;;;;;;;;;;21.24;33.25;100970.25;104300;1314;61382;-83
2022/01/07 00:28:59;;;;;;;;;;;;;;;21.24;33.35;100970.44;104250;1314;73966;-87
2022/01/07 00:31:43;;;;;;;;;;;;;;;21.24;33.11;100972.77;104235;1314;74849;-84
2022/01/07 00:34:08;;;;;;;;;;;;;;;21.24;33.19;100974.41;104311;1313;61860;-83
2022/01/07 00:36:54;;;;;;;;;;;;;;;21.23;33.22;100973.89;104221;1314;61340;-83
2022/01/07 00:39:21;;;;;;;;;;;;;;;21.24;33.24;100980.14;104175;1314;72706;-84
2022/01/07 00:41:49;;;;;;;;;;;;;;;21.23;33.21;100986.42;104183;1314;74737;-84
2022/01/07 00:44:35;;;;;;;;;;;;;;;;;;;;;
2022/01/07 00:47:35;;;;;;;;;;;;;;;21.23;33.23;100970.85;104203;1314;61205;-85
2022/01/07 00:50:21;;;;;;;;;;;;;;;21.22;33.02;100962.13;104217;1314;74142;-83
2022/01/07 00:53:08;;;;;;;;;;;;;;;21.22;33.19;100961.98;104297;1314;75827;-85
2022/01/07 00:55:53;;;;;;;;;;;;;;;21.22;33.32;100966.61;104223;1308;61397;-82
2022/01/07 00:58:36;;;;;;;;;;;;;;;21.23;33.28;100971.61;104658;1305;61154;-83
2022/01/07 01:01:19;;;;;;;;;;;;;;;;;;;;;
2022/01/07 01:04:08;;;;;;;;;;;;;;;;;;;;;
2022/01/07 01:06:45;;;;;;;;;;;;;;;;;;;;;
2022/01/07 01:09:15;;;;;;;;;;;;;;;21.22;33.19;100987.21;104706;1305;61221;-85
2022/01/07 01:12:00;;;;;;;;;;;;;;;;;;;;;
2022/01/07 01:14:35;;;;;;;;;;;;;;;21.23;33.00;101011.33;104118;1316;76069;-83
2022/01/07 01:17:08;;;;;;;;;;;;;;;21.22;32.98;100998.66;104026;1317;62421;-79
2022/01/07 01:19:36;;;;;;;;;;;;;;;21.23;33.04;100994.67;104167;1317;61657;-81
2022/01/07 01:22:24;;;;;;;;;;;;;;;21.22;33.14;100992.79;103822;1317;71810;-85
2022/01/07 01:24:53;;;;;;;;;;;;;;;21.22;33.10;100996.70;104312;1307;75267;-83
2022/01/07 01:27:39;;;;;;;;;;;;;;;21.22;33.11;100994.73;104491;1308;61474;-83
2022/01/07 01:30:36;;;;;;;;;;;;;;;21.22;33.14;100998.15;104619;1307;61595;-84
2022/01/07 01:33:22;;;;;;;;;;;;;;;21.21;33.04;100990.30;104629;1307;74018;-85
2022/01/07 01:35:57;;;;;;;;;;;;;;;21.22;33.10;100987.60;104500;1307;75906;-86
2022/01/07 01:38:34;;;;;;;;;;;;;;;21.21;33.23;100985.65;104519;1308;61147;-84
2022/01/07 01:41:16;;;;;;;;;;;;;;;21.22;33.15;100989.41;104608;1307;61663;-85
2022/01/07 01:44:14;;;;;;;;;;;;;;;21.22;32.94;100996.00;104485;1308;73721;-82
2022/01/07 01:46:39;;;;;;;;;;;;;;;21.21;33.16;101006.98;104520;1308;75151;-83
2022/01/07 01:49:35;;;;;;;;;;;;;;;21.21;32.96;101013.95;104622;1307;60208;-86
2022/01/07 01:52:19;;;;;;;;;;;;;;;21.21;32.89;101022.03;104630;1307;61290;-84
2022/01/07 01:54:59;;;;;;;;;;;;;;;21.21;33.22;101023.84;104611;1308;72953;-83
2022/01/07 01:57:28;;;;;;;;;;;;;;;21.21;33.00;101025.98;104374;1307;75867;-84
2022/01/07 02:00:06;;;;;;;;;;;;;;;21.20;33.06;101025.85;104512;1308;61313;-87
2022/01/07 02:02:38;;;;;;;;;;;;;;;21.20;33.25;101031.75;104502;1308;61370;-82
2022/01/07 02:05:11;;;;;;;;;;;;;;;21.20;33.24;101037.67;104510;1307;72837;-86
2022/01/07 02:08:17;;;;;;;;;;;;;;;21.19;32.92;101046.48;104503;1307;73560;-82
2022/01/07 02:11:03;;;;;;;;;;;;;;;21.20;33.15;101049.49;104454;1308;61300;-86
2022/01/07 02:13:41;;;;;;;;;;;;;;;21.19;33.10;101045.42;104523;1307;61242;-84
2022/01/07 02:16:19;;;;;;;;;;;;;;;21.19;32.99;101045.77;104364;1308;73177;-84
2022/01/07 02:18:47;;;;;;;;;;;;;;;21.19;32.98;101047.05;104515;1307;74895;-85
2022/01/07 02:21:22;;;;;;;;;;;;;;;21.18;33.05;101049.05;104650;1307;61278;-84
2022/01/07 02:24:16;;;;;;;;;;;;;;;21.18;32.80;101051.73;104280;1314;61845;-85
2022/01/07 02:26:42;;;;;;;;;;;;;;;21.18;32.88;101059.44;104233;1314;72923;-82
2022/01/07 02:29:21;;;;;;;;;;;;;;;21.18;32.98;101061.42;104311;1314;75076;-82
2022/01/07 02:31:57;;;;;;;;;;;;;;;21.18;33.05;101061.45;104240;1314;61199;-83
2022/01/07 02:34:41;;;;;;;;;;;;;;;21.17;33.00;101061.45;104214;1314;61322;-82
2022/01/07 02:37:10;;;;;;;;;;;;;;;21.18;33.03;101063.25;104276;1314;72403;-82
2022/01/07 02:39:45;;;;;;;;;;;;;;;21.17;32.96;101065.41;104305;1314;74775;-87
2022/01/07 02:42:14;;;;;;;;;;;;;;;21.17;33.01;101071.85;104280;1314;61167;-79
2022/01/07 02:44:45;;;;;;;;;;;;;;;21.17;32.89;101084.73;104278;1314;61211;-85
2022/01/07 02:47:46;;;;;;;;;;;;;;;21.17;33.06;101088.86;104288;1314;72776;-84
2022/01/07 02:50:17;;;;;;;;;;;;;;;21.17;32.82;101090.32;104231;1314;74746;-83
2022/01/07 02:53:07;;;;;;;;;;;;;;;21.17;32.97;101092.46;104302;1314;61556;-83
2022/01/07 02:55:54;;;;;;;;;;;;;;;;;;;;;
2022/01/07 02:58:41;;;;;;;;;;;;;;;21.17;32.88;101103.02;104081;1314;72920;-83
2022/01/07 03:01:14;;;;;;;;;;;;;;;21.16;32.88;101103.25;104250;1307;75982;-84
2022/01/07 03:03:45;;;;;;;;;;;;;;;21.16;32.81;101108.80;104509;1307;61400;-83
2022/01/07 03:06:36;;;;;;;;;;;;;;;21.16;32.73;101113.08;104538;1307;61134;-83
2022/01/07 03:09:31;;;;;;;;;;;;;;;21.16;32.85;101114.69;104614;1307;72799;-85
2022/01/07 03:12:04;;;;;;;;;;;;;;;21.16;32.95;101118.48;104631;1307;75901;-83
2022/01/07 03:14:38;;;;;;;;;;;;;;;21.16;32.75;101122.41;104468;1308;61453;-83
2022/01/07 03:17:07;;;;;;;;;;;;;;;21.16;32.84;101126.74;104368;1308;61160;-82
2022/01/07 03:19:52;;;;;;;;;;;;;;;21.16;32.86;101131.02;104488;1308;73710;-85
2022/01/07 03:22:25;;;;;;;;;;;;;;;21.16;32.83;101140.50;104626;1307;74820;-85
2022/01/07 03:24:51;;;;;;;;;;;;;;;21.16;32.81;101144.60;104565;1307;61310;-85
2022/01/07 03:27:35;;;;;;;;;;;;;;;;;;;;;
2022/01/07 03:30:07;;;;;;;;;;;;;;;21.16;32.84;101152.35;104429;1308;72164;-81
2022/01/07 03:32:33;;;;;;;;;;;;;;;21.15;32.77;101158.10;104336;1308;74018;-84
2022/01/07 03:35:10;;;;;;;;;;;;;;;21.15;32.90;101164.38;104517;1308;61526;-80
2022/01/07 03:37:52;;;;;;;;;;;;;;;;;;;;;
2022/01/07 03:40:27;;;;;;;;;;;;;;;21.14;32.65;101175.67;104528;1308;72972;-83
2022/01/07 03:43:15;;;;;;;;;;;;;;;21.14;32.71;101181.23;104631;1307;75664;-87
2022/01/07 03:45:53;;;;;;;;;;;;;;;21.14;32.77;101175.70;104296;1313;61333;-86
2022/01/07 03:48:27;;;;;;;;;;;;;;;21.14;32.71;101176.06;104173;1313;61458;-83
2022/01/07 03:51:03;;;;;;;;;;;;;;;21.14;32.71;101183.39;104321;1313;74101;-83
2022/01/07 03:53:41;;;;;;;;;;;;;;;21.13;32.76;101190.41;104198;1313;76376;-84
2022/01/07 03:56:20;;;;;;;;;;;;;;;21.15;32.59;101194.63;104259;1313;61206;-82
2022/01/07 03:58:48;;;;;;;;;;;;;;;21.16;32.64;101199.05;104255;1313;61482;-84
2022/01/07 04:01:21;;;;;;;;;;;;;;;21.14;32.55;101203.60;104213;1313;72916;-83
2022/01/07 04:04:18;;;;;;;;;;;;;;;21.13;32.68;101205.27;104244;1313;75178;-81
2022/01/07 04:06:52;;;;;;;;;;;;;;;21.12;32.68;101213.75;104235;1313;61265;-86
2022/01/07 04:09:28;;;;;;;;;;;;;;;21.12;32.66;101206.97;104338;1305;61380;-84
2022/01/07 04:11:58;;;;;;;;;;;;;;;21.12;32.69;101204.81;104901;1305;72860;-83
2022/01/07 04:14:42;;;;;;;;;;;;;;;21.13;32.67;101204.24;104940;1305;75865;-83
2022/01/07 04:17:13;;;;;;;;;;;;;;;21.13;32.64;101205.67;104736;1305;61567;-83
2022/01/07 04:20:00;;;;;;;;;;;;;;;21.13;32.82;101211.18;104918;1303;61345;-83
2022/01/07 04:22:32;;;;;;;;;;;;;;;21.14;32.73;101212.22;104887;1299;72753;-85
2022/01/07 04:25:22;;;;;;;;;;;;;;;21.14;32.57;101205.05;105201;1299;75590;-82
2022/01/07 04:28:16;;;;;;;;;;;;;;;21.14;32.48;101208.25;105352;1299;61486;-86
2022/01/07 04:30:54;;;;;;;;;;;;;;;21.15;32.74;101204.47;105233;1299;61359;-82
2022/01/07 04:33:31;;;;;;;;;;;;;;;21.15;32.56;101204.80;105197;1299;72976;-82
2022/01/07 04:36:11;;;;;;;;;;;;;;;21.16;32.75;101204.74;105334;1299;75704;-83
2022/01/07 04:38:57;;;;;;;;;;;;;;;21.16;32.80;101210.65;105249;1299;61212;-81
2022/01/07 04:41:44;;;;;;;;;;;;;;;21.16;32.69;101211.38;105272;1298;61186;-81
2022/01/07 04:44:21;;;;;;;;;;;;;;;21.17;32.86;101212.92;105217;1299;72840;-81
2022/01/07 04:47:11;;;;;;;;;;;;;;;21.17;32.72;101212.20;105392;1299;75918;-85
2022/01/07 04:49:36;;;;;;;;;;;;;;;21.17;32.79;101220.95;105352;1299;61389;-83
2022/01/07 04:52:23;;;;;;;;;;;;;;;;;;;;;
2022/01/07 04:55:02;;;;;;;;;;;;;;;21.18;32.98;101239.33;105200;1299;71654;-83
2022/01/07 04:57:31;;;;;;;;;;;;;;;21.18;32.83;101239.30;105397;1299;75628;-83
2022/01/07 05:00:05;;;;;;;;;;;;;;;21.17;32.55;101240.97;105391;1299;61243;-83
2022/01/07 05:02:40;;;;;;;;;;;;;;;21.17;32.71;101239.02;105348;1300;61256;-81
2022/01/07 05:05:15;;;;;;;;;;;;;;;21.17;32.84;101241.55;105209;1300;72690;-84
2022/01/07 05:07:49;;;;;;;;;;;;;;;21.17;32.81;101242.13;105370;1300;74644;-82
2022/01/07 05:10:37;;;;;;;;;;;;;;;21.16;32.67;101244.82;105229;1300;61414;-86
2022/01/07 05:13:06;;;;;;;;;;;;;;;21.16;32.66;101252.88;105384;1299;61653;-82
2022/01/07 05:15:42;;;;;;;;;;;;;;;21.15;32.88;101260.64;104951;1299;72345;-83
2022/01/07 05:18:13;;;;;;;;;;;;;;;21.14;32.68;101270.89;105213;1299;75784;-87
2022/01/07 05:20:59;;;;;;;;;;;;;;;21.14;32.50;101275.91;105244;1299;61435;-81
2022/01/07 05:23:28;;;;;;;;;;;;;;;21.14;32.73;101274.67;105372;1299;61278;-79
2022/01/07 05:25:54;;;;;;;;;;;;;;;21.14;32.52;101278.83;105262;1299;72863;-84
2022/01/07 05:28:38;;;;;;;;;;;;;;;21.13;32.65;101283.71;105246;1299;75697;-83
2022/01/07 05:31:07;;;;;;;;;;;;;;;21.12;32.68;101288.39;105069;1299;61278;-81
2022/01/07 05:33:48;;;;;;;;;;;;;;;;;;;;;
2022/01/07 05:36:14;;;;;;;;;;;;;;;21.11;32.72;101293.84;105071;1302;73089;-83
2022/01/07 05:38:52;;;;;;;;;;;;;;;21.10;32.64;101292.43;105047;1299;74741;-84
2022/01/07 05:41:26;;;;;;;;;;;;;;;21.09;32.67;101299.10;105176;1300;61450;-83
2022/01/07 05:43:58;;;;;;;;;;;;;;;21.08;32.60;101299.23;104952;1300;61538;-81
2022/01/07 05:46:24;;;;;;;;;;;;;;;21.06;32.59;101304.70;104925;1299;73067;-80
2022/01/07 05:48:52;;;;;;;;;;;;;;;21.04;32.62;101316.27;105074;1299;75760;-81
2022/01/07 05:51:18;;;;;;;;;;;;;;;21.02;32.27;101319.09;104928;1299;61310;-83
2022/01/07 05:53:43;;;;;;;;;;;;;;;20.99;32.19;101318.16;104801;1302;61301;-81
2022/01/07 05:56:09;;;;;;;;;;;;;;;20.98;32.30;101319.72;104898;1299;61393;-81
2022/01/07 05:58:35;;;;;;;;;;;;;;;20.93;32.32;101321.63;105097;1298;61473;-84
2022/01/07 06:01:00;;;;;;;;;;;;;;;20.90;32.35;101328.26;105110;1298;74213;-81
2022/01/07 06:03:26;;;;;;;;;;;;;;;20.88;32.25;101331.07;105089;1299;61288;-83
2022/01/07 06:05:51;;;;;;;;;;;;;;;20.87;32.19;101331.13;105085;1299;61275;-81
2022/01/07 06:08:17;;;;;;;;;;;;;;;20.86;32.31;101338.15;104756;1301;61300;-80
2022/01/07 06:10:44;;;;;;;;;;;;;;;20.88;32.30;101339.48;104864;1299;61268;-81
2022/01/07 06:13:10;;;;;;;;;;;;;;;20.90;32.36;101347.56;105054;1299;75289;-80
2022/01/07 06:15:35;;;;;;;;;;;;;;;20.92;32.02;101348.70;104878;1299;60161;-80
2022/01/07 06:18:04;;;;;;;;;;;;;;;20.95;32.30;101348.73;104844;1299;61303;-80
2022/01/07 06:20:32;;;;;;;;;;;;;;;20.97;32.07;101352.35;104997;1297;74568;-81
2022/01/07 06:22:58;;;;;;;;;;;;;;;20.99;32.02;101364.59;105044;1297;61278;-80
2022/01/07 06:25:24;;;;;;;;;;;;;;;21.01;31.99;101370.70;104938;1299;61286;-83
2022/01/07 06:27:53;;;;;;;;;;;;;;;21.02;32.02;101375.99;104945;1297;61284;-81
2022/01/07 06:30:21;;;;;;;;;;;;;;;21.03;32.08;101371.62;104926;1299;73577;-81
2022/01/07 06:32:49;;;;;;;;;;;;;;;21.05;32.02;101376.53;105045;1297;61345;-81
2022/01/07 06:35:14;;;;;;;;;;;;;;;21.06;32.18;101370.36;104911;1299;60541;-82
2022/01/07 06:37:40;;;;;;;;;;;;;;;21.06;32.07;101355.86;105052;1298;61221;-85
2022/01/07 06:40:05;;;;;;;;;;;;;;;21.08;31.98;101358.25;104905;1299;61254;-83
2022/01/07 06:42:31;;;;;;;;;;;;;;;21.10;31.95;101366.59;104956;1298;61315;-81
2022/01/07 06:44:57;;;;;;;;;;;;;;;21.10;32.12;101371.94;104952;1297;61237;-81
2022/01/07 06:47:22;;;;;;;;;;;;;;;21.11;31.99;101371.00;105058;1298;61346;-81
2022/01/07 06:49:49;;;;;;;;;;;;;;;21.12;31.97;101376.48;105106;1299;61325;-81
2022/01/07 06:52:18;;;;;;;;;;;;;;;21.13;31.87;101374.08;105118;1299;61291;-81
2022/01/07 06:54:45;;;;;;;;;;;;;;;21.14;31.93;101376.89;105080;1297;74734;-80
2022/01/07 06:57:17;;;;;;;;;;;;;;;21.15;32.08;101384.71;105157;1298;62397;-80
2022/01/07 07:00:06;;;;;;;;;;;;;;;21.15;32.07;101375.57;105168;1299;60456;-84
2022/01/07 07:02:35;;;;;;;;;;;;;;;21.15;31.93;101374.45;104713;1304;72969;-80
2022/01/07 07:05:04;;;;;;;;;;;;;;;21.15;32.02;101380.89;104373;1305;74174;-81
2022/01/07 07:07:29;;;;;;;;;;;;;;;21.16;32.15;101386.39;104619;1305;61335;-80
2022/01/07 07:09:55;;;;;;;;;;;;;;;21.17;31.86;101384.02;104654;1305;61371;-80
2022/01/07 07:12:20;;;;;;;;;;;;;;;21.18;32.16;101384.12;104616;1304;61368;-80
2022/01/07 07:14:46;;;;;;;;;;;;;;;21.20;32.13;101378.48;104694;1303;61407;-80
2022/01/07 07:17:12;;;;;;;;;;;;;;;21.21;32.08;101388.39;104616;1303;76277;-81
2022/01/07 07:19:40;;;;;;;;;;;;;;;21.24;32.11;101394.70;104575;1305;61435;-81
2022/01/07 07:22:06;;;;;;;;;;;;;;;21.26;31.93;101394.21;104655;1304;61262;-82
2022/01/07 07:24:32;;;;;;;;;;;;;;;21.28;32.22;101398.94;104651;1303;61292;-81
2022/01/07 07:26:58;;;;;;;;;;;;;;;21.30;32.18;101401.33;104620;1305;61281;-81
2022/01/07 07:29:23;;;;;;;;;;;;;;;21.32;32.07;101406.75;104661;1304;61307;-81
2022/01/07 07:31:53;;;;;;;;;;;;;;;21.32;32.08;101412.07;104660;1305;61301;-81
2022/01/07 07:34:32;;;;;;;;;;;;;;;21.34;32.00;101417.70;104563;1305;61494;-86
2022/01/07 07:37:20;;;;;;;;;;;;;;;21.35;32.11;101426.41;104584;1303;72689;-82
2022/01/07 07:39:46;;;;;;;;;;;;;;;21.36;32.04;101434.38;104788;1299;74461;-80
2022/01/07 07:42:12;;;;;;;;;;;;;;;21.37;32.17;101436.12;104988;1299;61284;-80
2022/01/07 07:44:40;;;;;;;;;;;;;;;21.38;32.24;101436.24;105206;1298;61345;-82
2022/01/07 07:47:05;;;;;;;;;;;;;;;21.38;32.02;101438.20;105101;1299;61268;-80
2022/01/07 07:49:31;;;;;;;;;;;;;;;21.39;32.15;101444.24;105030;1299;61321;-82
2022/01/07 07:51:56;;;;;;;;;;;;;;;21.39;32.30;101449.40;105111;1297;61735;-80
2022/01/07 07:54:22;;;;;;;;;;;;;;;21.40;32.23;101460.47;105112;1297;61300;-81
2022/01/07 07:56:47;;;;;;;;;;;;;;;21.41;32.13;101464.36;105126;1299;61371;-81
2022/01/07 07:59:13;;;;;;;;;;;;;;;21.41;32.43;101466.84;104950;1299;61488;-80
2022/01/07 08:01:38;;;;;;;;;;;;;;;21.41;32.20;101474.34;105140;1298;61400;-81
2022/01/07 08:04:22;;;;;;;;;;;;;;;21.41;32.20;101475.11;105034;1298;61239;-79
2022/01/07 08:06:48;;;;;;;;;;;;;;;21.40;32.14;101473.20;105154;1299;61395;-81
2022/01/07 08:09:24;;;;;;;;;;;;;;;21.39;32.36;101477.72;104992;1299;61162;-84
2022/01/07 08:11:52;;;;;;;;;;;;;;;21.39;32.33;101482.94;105121;1297;75685;-83
2022/01/07 08:17:19;;;;;;;;;;;;;;;21.38;32.25;101484.38;105026;1297;61164;-81
2022/01/07 08:19:44;;;;;;;;;;;;;;;21.38;32.14;101482.23;105053;1298;61434;-81
2022/01/07 08:22:10;;;;;;;;;;;;;;;21.38;32.23;101478.83;105119;1297;61315;-81
2022/01/07 08:24:36;;;;;;;;;;;;;;;21.39;32.26;101483.28;105304;1299;61291;-82
2022/01/07 08:27:02;;;;;;;;;;;;;;;21.38;32.40;101480.98;104965;1298;61714;-80
2022/01/07 08:29:31;;;;;;;;;;;;;;;21.40;32.38;101488.05;105049;1299;61255;-80
2022/01/07 08:34:53;;;;;;;;;;;;;;;21.41;32.14;101493.89;104944;1299;75640;-80
2022/01/07 08:37:26;;;;;;;;;;;;;;;21.42;32.30;101497.05;104985;1297;60106;-81
2022/01/07 08:39:54;;;;;;;;;;;;;;;21.43;32.34;101499.86;104956;1300;61448;-81
2022/01/07 08:42:23;;;;;;;;;;;;;;;21.44;32.20;101498.02;105151;1297;72986;-81
2022/01/07 08:44:57;;;;;;;;;;;;;;;21.45;32.16;101506.59;105057;1297;74631;-81
2022/01/07 08:47:24;;;;;;;;;;;;;;;21.45;32.38;101499.22;104988;1299;61196;-83
2022/01/07 08:49:51;;;;;;;;;;;;;;;21.46;32.18;101496.45;105142;1299;61041;-81
2022/01/07 08:52:16;;;;;;;;;;;;;;;21.47;32.11;101491.23;104904;1299;72903;-80
2022/01/07 08:54:42;;;;;;;;;;;;;;;21.47;32.43;101488.34;105018;1299;61435;-80
2022/01/07 08:57:26;;;;;;;;;;;;;;;;;;;;;
2022/01/07 08:59:52;;;;;;;;;;;;;;;21.47;32.30;101495.48;105132;1297;60530;-86
2022/01/07 09:02:41;;;;;;;;;;;;;;;21.47;32.44;101502.33;104999;1299;61286;-80
2022/01/07 09:05:07;;;;;;;;;;;;;;;21.47;32.38;101507.88;104901;1299;74329;-80
2022/01/07 09:07:34;;;;;;;;;;;;;;;21.47;32.36;101517.33;105081;1299;62891;-80
2022/01/07 09:10:00;;;;;;;;;;;;;;;21.47;32.37;101520.38;105062;1299;61104;-81
2022/01/07 09:12:25;;;;;;;;;;;;;;;21.47;32.36;101524.33;105053;1299;61240;-80
2022/01/07 09:14:50;;;;;;;;;;;;;;;21.47;32.25;101523.05;105063;1299;61303;-80
2022/01/07 09:17:18;;;;;;;;;;;;;;;21.48;32.34;101529.12;105104;1298;61947;-80
2022/01/07 09:19:44;;;;;;;;;;;;;;;21.48;32.32;101528.41;105014;1299;61082;-80
2022/01/07 09:22:09;;;;;;;;;;;;;;;21.48;32.49;101533.21;105142;1296;61273;-80
2022/01/07 09:24:34;;;;;;;;;;;;;;;21.48;32.44;101541.27;105108;1299;61265;-81
2022/01/07 09:27:00;;;;;;;;;;;;;;;21.49;32.53;101542.15;105001;1299;61289;-81
2022/01/07 09:29:27;;;;;;;;;;;;;;;21.49;32.56;101545.36;105054;1299;61319;-82
2022/01/07 09:31:56;;;;;;;;;;;;;;;21.49;32.53;101549.13;105053;1299;61399;-79
2022/01/07 09:34:21;;;;;;;;;;;;;;;21.49;32.59;101551.96;104995;1299;61367;-81
2022/01/07 09:36:50;;;;;;;;;;;;;;;21.49;32.58;101556.81;104968;1297;75795;-80
2022/01/07 09:39:15;;;;;;;;;;;;;;;21.49;32.57;101558.42;105078;1298;61388;-80
2022/01/07 09:41:41;;;;;;;;;;;;;;;21.49;32.53;101565.39;104802;1302;61585;-83
2022/01/07 09:44:33;;;;;;;;;;;;;;;21.48;32.47;101564.01;104982;1299;61248;-80
2022/01/07 09:46:59;;;;;;;;;;;;;;;21.47;32.43;101567.48;104695;1303;75824;-81
2022/01/07 09:49:27;;;;;;;;;;;;;;;21.46;32.60;101564.32;104683;1303;60153;-80
2022/01/07 09:51:52;;;;;;;;;;;;;;;21.46;32.49;101563.28;104564;1303;61622;-83
2022/01/07 09:54:18;;;;;;;;;;;;;;;21.45;32.56;101566.17;104500;1303;61325;-80
2022/01/07 09:56:44;;;;;;;;;;;;;;;21.45;32.38;101566.00;104382;1303;61392;-79
2022/01/07 09:59:10;;;;;;;;;;;;;;;21.45;32.38;101558.14;104529;1303;61262;-80
2022/01/07 10:01:54;;;;;;;;;;;;;;;21.45;32.28;101561.16;104454;1303;61365;-80
2022/01/07 10:04:33;;;;;;;;;;;;;;;21.45;32.26;101557.45;104520;1303;73200;-80
2022/01/07 10:07:16;;;;;;;;;;;;;;;21.44;32.27;101559.98;104363;1303;75721;-81
2022/01/07 10:09:42;;;;;;;;;;;;;;;21.43;32.34;101562.55;104575;1303;61653;-80
2022/01/07 10:12:08;;;;;;;;;;;;;;;21.43;32.43;101560.02;104536;1303;61394;-80
2022/01/07 10:14:36;;;;;;;;;;;;;;;21.43;32.47;101562.91;104458;1303;61653;-81
2022/01/07 10:17:08;;;;;;;;;;;;;;;21.43;32.51;101563.42;104742;1303;75264;-83
2022/01/07 10:19:40;;;;;;;;;;;;;;;21.43;32.45;101563.80;104600;1306;61386;-81
2022/01/07 10:22:06;;;;;;;;;;;;;;;21.42;32.39;101565.11;104952;1303;62290;-80
2022/01/07 10:24:32;;;;;;;;;;;;;;;21.42;32.46;101558.12;105832;1299;72773;-80
2022/01/07 10:27:08;;;;;;;;;;;;;;;21.41;32.49;101553.48;104914;1299;61262;-82
2022/01/07 10:29:46;;;;;;;;;;;;;;;21.42;32.53;101547.89;105240;1299;61067;-81
2022/01/07 10:32:27;;;;;;;;;;;;;;;21.43;32.42;101548.04;105076;1297;60470;-80
2022/01/07 10:35:06;;;;;;;;;;;;;;;21.42;32.39;101544.48;105065;1297;74270;-79
2022/01/07 10:37:32;;;;;;;;;;;;;;;21.42;32.41;101541.06;105013;1299;75749;-81
2022/01/07 10:39:59;;;;;;;;;;;;;;;21.43;32.38;101537.30;105075;1298;61278;-80
2022/01/07 10:42:27;;;;;;;;;;;;;;;21.42;32.29;101533.04;105098;1299;61147;-82
2022/01/07 10:45:05;;;;;;;;;;;;;;;21.42;32.22;101535.04;105249;1299;72391;-82
2022/01/07 10:47:30;;;;;;;;;;;;;;;21.42;32.30;101532.52;105015;1298;74807;-80
2022/01/07 10:50:19;;;;;;;;;;;;;;;21.42;32.28;101539.84;105132;1299;61367;-80
2022/01/07 10:52:47;;;;;;;;;;;;;;;21.38;32.05;101535.96;105057;1298;61058;-80
2022/01/07 10:55:14;;;;;;;;;;;;;;;21.25;31.72;101532.16;105085;1299;61225;-81
2022/01/07 10:57:41;;;;;;;;;;;;;;;21.09;31.53;101533.23;105063;1299;59517;-83
2022/01/07 11:00:08;;;;;;;;;;;;;;;21.00;31.51;101531.25;105146;1299;61286;-82
2022/01/07 11:02:33;;;;;;;;;;;;;;;21.00;31.47;101534.51;105122;1299;61957;-82
2022/01/07 11:05:00;;;;;;;;;;;;;;;21.02;31.71;101532.76;104924;1300;61333;-81
2022/01/07 11:07:28;;;;;;;;;;;;;;;21.04;31.67;101537.29;105176;1298;62718;-80
2022/01/07 11:09:54;;;;;;;;;;;;;;;21.07;31.59;101534.44;105104;1299;61158;-82
2022/01/07 11:12:19;;;;;;;;;;;;;;;21.10;31.29;101535.70;105025;1299;61152;-81
2022/01/07 11:14:45;;;;;;;;;;;;;;;21.13;31.32;101540.20;105139;1299;61278;-82
2022/01/07 11:17:12;;;;;;;;;;;;;;;21.14;31.45;101541.38;105141;1299;61316;-81
2022/01/07 11:19:39;;;;;;;;;;;;;;;21.16;31.67;101540.89;105184;1299;61739;-81
2022/01/07 11:22:05;;;;;;;;;;;;;;;21.18;31.35;101540.23;105155;1299;61288;-81
2022/01/07 11:24:34;;;;;;;;;;;;;;;21.20;31.71;101540.83;105060;1299;61310;-80
2022/01/07 11:27:20;;;;;;;;;;;;;;;21.23;31.64;101543.69;105142;1299;75839;-81
2022/01/07 11:29:52;;;;;;;;;;;;;;;21.25;31.56;101547.86;105321;1297;61331;-81
2022/01/07 11:32:34;;;;;;;;;;;;;;;21.28;31.43;101553.05;105143;1299;60413;-81
2022/01/07 11:35:18;;;;;;;;;;;;;;;21.31;31.54;101550.04;105118;1299;73902;-82
2022/01/07 11:37:45;;;;;;;;;;;;;;;21.33;31.64;101549.86;105096;1299;75048;-80
2022/01/07 11:40:29;;;;;;;;;;;;;;;21.35;31.80;101551.73;105208;1299;62796;-81
2022/01/07 11:42:55;;;;;;;;;;;;;;;21.36;31.55;101553.63;105415;1298;60424;-80
2022/01/07 11:45:29;;;;;;;;;;;;;;;21.39;31.48;101555.64;104876;1299;61269;-82
2022/01/07 11:47:55;;;;;;;;;;;;;;;21.40;31.45;101553.58;104750;1300;77645;-82
2022/01/07 11:50:20;;;;;;;;;;;;;;;21.36;31.11;101552.59;105339;1299;61378;-79
2022/01/07 11:53:22;;;;;;;;;;;;;;;21.29;31.11;101549.56;105168;1299;61395;-82
2022/01/07 11:55:47;;;;;;;;;;;;;;;21.19;30.90;101547.64;104995;1303;71272;-82
2022/01/07 11:58:14;;;;;;;;;;;;;;;21.18;31.12;101545.98;104934;1303;61194;-81
2022/01/07 12:00:52;;;;;;;;;;;;;;;21.20;31.04;101546.39;104752;1306;61021;-81
2022/01/07 12:03:31;;;;;;;;;;;;;;;21.23;31.06;101545.28;104898;1303;60580;-81
2022/01/07 12:05:56;;;;;;;;;;;;;;;21.27;30.96;101541.48;104776;1303;73691;-80
2022/01/07 12:08:38;;;;;;;;;;;;;;;21.31;30.93;101539.64;104731;1303;61264;-83
2022/01/07 12:11:10;;;;;;;;;;;;;;;21.34;31.01;101540.85;105402;1303;60693;-80
2022/01/07 12:13:36;;;;;;;;;;;;;;;21.38;31.02;101542.98;105531;1305;61557;-81
2022/01/07 12:16:01;;;;;;;;;;;;;;;21.40;31.09;101551.79;105702;1302;59704;-81
2022/01/07 12:18:31;;;;;;;;;;;;;;;21.42;31.13;101550.77;105395;1305;59627;-81
2022/01/07 12:20:56;;;;;;;;;;;;;;;21.45;31.01;101552.38;105627;1304;60620;-81
2022/01/07 12:23:22;;;;;;;;;;;;;;;21.48;31.21;101550.98;105426;1303;60561;-81
2022/01/07 12:25:49;;;;;;;;;;;;;;;21.49;31.19;101544.96;104645;1305;61518;-81
2022/01/07 12:28:14;;;;;;;;;;;;;;;21.51;31.21;101543.97;104684;1305;60652;-83
2022/01/07 12:30:43;;;;;;;;;;;;;;;21.53;31.21;101547.45;104878;1300;61298;-82
2022/01/07 12:33:09;;;;;;;;;;;;;;;21.53;31.06;101547.79;104975;1300;61691;-81
2022/01/07 12:35:35;;;;;;;;;;;;;;;21.55;31.04;101548.92;104937;1301;61361;-83
2022/01/07 12:38:08;;;;;;;;;;;;;;;21.55;31.14;101544.44;105065;1300;61334;-82
2022/01/07 12:40:33;;;;;;;;;;;;;;;21.56;31.01;101545.48;104994;1300;61276;-82
2022/01/07 12:42:59;;;;;;;;;;;;;;;21.57;31.04;101546.88;104896;1301;61389;-81
2022/01/07 12:45:26;;;;;;;;;;;;;;;21.57;31.18;101550.43;104999;1300;61509;-81
2022/01/07 12:47:54;;;;;;;;;;;;;;;21.57;31.06;101550.63;104945;1299;61257;-81
2022/01/07 12:50:20;;;;;;;;;;;;;;;21.57;31.03;101549.70;104986;1300;61228;-83
2022/01/07 12:52:47;;;;;;;;;;;;;;;21.58;31.13;101553.21;105828;1300;59339;-81
2022/01/07 12:55:16;;;;;;;;;;;;;;;21.57;31.14;101557.91;105779;1300;59277;-81
2022/01/07 12:57:42;;;;;;;;;;;;;;;21.56;31.08;101559.95;105887;1300;76125;-81
2022/01/07 13:00:08;;;;;;;;;;;;;;;21.56;31.07;101559.80;105846;1300;60028;-80
2022/01/07 13:02:33;;;;;;;;;;;;;;;21.55;30.99;101555.05;105908;1300;59492;-80
2022/01/07 13:05:09;;;;;;;;;;;;;;;21.55;31.08;101555.92;105859;1300;59483;-80
2022/01/07 13:07:38;;;;;;;;;;;;;;;21.56;31.16;101559.60;105781;1300;76773;-81
2022/01/07 13:10:04;;;;;;;;;;;;;;;21.58;31.03;101566.09;105114;1299;60874;-80
2022/01/07 13:12:30;;;;;;;;;;;;;;;21.60;31.32;101567.08;104921;1300;61281;-80
2022/01/07 13:14:55;;;;;;;;;;;;;;;21.60;31.15;101565.07;105118;1299;59858;-79
2022/01/07 13:17:27;;;;;;;;;;;;;;;21.62;30.95;101568.06;105036;1300;61433;-81
2022/01/07 13:19:53;;;;;;;;;;;;;;;21.63;31.19;101566.74;105037;1299;61189;-81